createdAt,value
2023-05-09T00:01:24.547Z,68.42
2023-05-09T00:03:52.405Z,68.40
2023-05-09T00:06:19.894Z,68.41
2023-05-09T00:08:46.688Z,68.62
2023-05-09T00:11:13.350Z,68.77
2023-05-09T00:13:40.168Z,69.12
2023-05-09T00:16:07.156Z,69.34
2023-05-09T00:18:34.124Z,69.49
2023-05-09T00:21:02.489Z,69.30
2023-05-09T00:23:29.060Z,69.24
2023-05-09T00:25:55.823Z,69.15
2023-05-09T00:28:22.549Z,69.33
2023-05-09T00:30:49.218Z,69.45
2023-05-09T00:33:16.266Z,69.77
2023-05-09T00:35:42.869Z,69.63
2023-05-09T00:38:09.597Z,69.72
2023-05-09T00:40:36.540Z,69.75
2023-05-09T00:43:03.303Z,69.68
2023-05-09T00:45:29.956Z,69.87
2023-05-09T00:47:57.708Z,69.88
2023-05-09T00:50:24.994Z,69.89
2023-05-09T00:52:51.830Z,69.89
2023-05-09T00:55:19.820Z,69.81
2023-05-09T00:57:46.506Z,69.79
2023-05-09T01:00:14.108Z,69.65
2023-05-09T01:02:46.730Z,69.69
2023-05-09T01:05:15.340Z,69.13
2023-05-09T01:08:18.171Z,69.01
2023-05-09T01:11:09.464Z,68.90
2023-05-09T01:13:51.680Z,69.18
2023-05-09T01:16:37.582Z,69.34
2023-05-09T01:19:29.389Z,69.12
2023-05-09T01:21:57.181Z,69.10
2023-05-09T01:25:05.672Z,68.93
2023-05-09T01:28:06.703Z,68.88
2023-05-09T01:30:35.995Z,68.73
2023-05-09T01:33:07.269Z,68.87
2023-05-09T01:35:37.455Z,69.10
2023-05-09T01:38:12.605Z,69.32
2023-05-09T01:40:42.482Z,69.38
2023-05-09T01:43:11.268Z,69.42
2023-05-09T01:45:39.514Z,69.28
2023-05-09T01:48:08.805Z,69.03
2023-05-09T01:50:36.204Z,68.96
2023-05-09T01:53:05.846Z,68.86
2023-05-09T01:55:35.365Z,68.76
2023-05-09T01:58:05.070Z,68.56
2023-05-09T02:00:35.479Z,68.06
2023-05-09T02:03:04.156Z,67.94
2023-05-09T02:05:32.418Z,67.75
2023-05-09T02:07:59.480Z,67.68
2023-05-09T02:10:29.963Z,67.43
2023-05-09T02:12:57.888Z,67.30
2023-05-09T02:15:25.985Z,67.10
2023-05-09T02:17:52.698Z,67.01
2023-05-09T02:20:19.524Z,66.95
2023-05-09T02:22:47.136Z,66.95
2023-05-09T02:25:15.869Z,67.23
2023-05-09T02:27:45.418Z,67.16
2023-05-09T02:30:17.501Z,67.20
2023-05-09T02:32:47.304Z,66.87
2023-05-09T02:35:16.481Z,66.50
2023-05-09T02:37:45.421Z,66.37
2023-05-09T02:40:13.392Z,66.38
2023-05-09T02:42:40.134Z,66.59
2023-05-09T02:45:07.984Z,66.52
2023-05-09T02:47:35.770Z,66.66
2023-05-09T02:50:02.567Z,66.88
2023-05-09T02:52:29.207Z,66.87
2023-05-09T02:54:55.944Z,66.65
2023-05-09T02:57:23.112Z,66.64
2023-05-09T02:59:49.816Z,66.27
2023-05-09T03:02:16.747Z,66.04
2023-05-09T03:04:44.172Z,65.80
2023-05-09T03:07:10.815Z,65.77
2023-05-09T03:09:39.248Z,65.59
2023-05-09T03:12:08.292Z,65.43
2023-05-09T03:14:35.787Z,65.31
2023-05-09T03:17:02.635Z,65.27
2023-05-09T03:19:33.628Z,65.22
2023-05-09T03:22:00.336Z,65.34
2023-05-09T03:24:28.355Z,65.51
2023-05-09T03:26:55.313Z,65.65
2023-05-09T03:29:22.084Z,65.93
2023-05-09T03:31:48.938Z,66.19
2023-05-09T03:34:15.630Z,66.27
2023-05-09T03:36:46.316Z,66.21
2023-05-09T03:39:14.280Z,66.18
2023-05-09T03:41:44.239Z,66.50
2023-05-09T03:44:13.070Z,66.55
2023-05-09T03:46:39.784Z,66.45
2023-05-09T03:49:06.996Z,66.63
2023-05-09T03:51:33.841Z,66.89
2023-05-09T03:54:01.286Z,67.14
2023-05-09T03:56:28.796Z,67.03
2023-05-09T03:58:55.522Z,67.05
2023-05-09T04:01:22.464Z,66.93
2023-05-09T04:03:49.306Z,67.01
2023-05-09T04:06:16.559Z,66.76
2023-05-09T04:08:44.662Z,66.77
2023-05-09T04:11:11.290Z,66.47
2023-05-09T04:13:39.608Z,66.51
2023-05-09T04:16:13.382Z,66.59
2023-05-09T04:18:42.356Z,66.78
2023-05-09T04:21:09.503Z,66.95
2023-05-09T04:23:36.965Z,66.86
2023-05-09T04:26:03.763Z,66.52
2023-05-09T04:28:30.769Z,66.55
2023-05-09T04:30:58.260Z,66.45
2023-05-09T04:33:25.079Z,66.30
2023-05-09T04:35:52.358Z,66.20
2023-05-09T04:38:19.345Z,66.20
2023-05-09T04:40:46.265Z,66.25
2023-05-09T04:43:12.965Z,66.45
2023-05-09T04:45:40.788Z,66.41
2023-05-09T04:48:07.798Z,66.65
2023-05-09T04:50:34.636Z,66.90
2023-05-09T04:53:03.424Z,67.15
2023-05-09T04:55:30.252Z,67.29
2023-05-09T04:57:57.169Z,67.10
2023-05-09T05:00:24.228Z,67.06
2023-05-09T05:02:51.392Z,66.98
2023-05-09T05:05:24.602Z,66.80
2023-05-09T05:07:54.258Z,66.34
2023-05-09T05:10:22.218Z,66.25
2023-05-09T05:12:53.022Z,65.95
2023-05-09T05:15:19.768Z,66.09
2023-05-09T05:17:47.873Z,66.15
2023-05-09T05:20:22.104Z,65.84
2023-05-09T05:22:49.419Z,65.38
2023-05-09T05:25:17.801Z,65.08
2023-05-09T05:27:45.908Z,64.49
2023-05-09T05:30:15.590Z,64.16
2023-05-09T05:32:43.788Z,63.65
2023-05-09T05:35:12.156Z,63.33
2023-05-09T05:37:39.947Z,63.24
2023-05-09T05:40:08.800Z,62.96
2023-05-09T05:42:36.522Z,62.61
2023-05-09T05:45:06.260Z,62.57
2023-05-09T05:47:37.091Z,62.15
2023-05-09T05:50:11.639Z,62.30
2023-05-09T05:52:41.986Z,62.08
2023-05-09T05:55:11.540Z,62.26
2023-05-09T05:57:39.142Z,62.05
2023-05-09T06:00:11.388Z,61.93
2023-05-09T06:02:45.474Z,61.78
2023-05-09T06:05:17.670Z,61.60
2023-05-09T06:07:44.450Z,61.38
2023-05-09T06:10:11.364Z,60.99
2023-05-09T06:12:38.360Z,60.99
2023-05-09T06:15:07.168Z,61.00
2023-05-09T06:17:36.096Z,61.07
2023-05-09T06:20:02.802Z,60.95
2023-05-09T06:22:29.562Z,60.85
2023-05-09T06:24:56.184Z,60.82
2023-05-09T06:27:22.818Z,60.50
2023-05-09T06:29:49.413Z,60.60
2023-05-09T06:32:18.807Z,60.01
2023-05-09T06:34:45.572Z,60.03
2023-05-09T06:37:12.158Z,60.07
2023-05-09T06:39:38.837Z,59.97
2023-05-09T06:42:05.627Z,59.86
2023-05-09T06:44:33.367Z,59.90
2023-05-09T06:46:59.992Z,59.86
2023-05-09T06:49:26.861Z,59.89
2023-05-09T06:51:53.426Z,59.50
2023-05-09T06:54:20.060Z,59.47
2023-05-09T06:56:46.666Z,59.47
2023-05-09T06:59:13.572Z,59.56
2023-05-09T07:01:41.186Z,59.48
2023-05-09T07:04:08.014Z,59.06
2023-05-09T07:06:34.633Z,59.11
2023-05-09T07:09:01.280Z,59.09
2023-05-09T07:11:27.985Z,58.62
2023-05-09T07:13:54.548Z,58.54
2023-05-09T07:16:23.156Z,58.49
2023-05-09T07:18:49.862Z,58.35
2023-05-09T07:21:16.668Z,58.38
2023-05-09T07:23:43.348Z,57.74
2023-05-09T07:26:10.033Z,57.46
2023-05-09T07:28:36.781Z,57.06
2023-05-09T07:31:03.533Z,57.45
2023-05-09T07:33:30.238Z,57.36
2023-05-09T07:35:59.304Z,57.39
2023-05-09T07:38:26.474Z,56.95
2023-05-09T07:40:53.428Z,56.81
2023-05-09T07:43:20.037Z,56.83
2023-05-09T07:45:47.255Z,56.72
2023-05-09T07:48:13.866Z,56.12
2023-05-09T07:50:40.437Z,55.86
2023-05-09T07:53:07.024Z,55.54
2023-05-09T07:55:33.640Z,55.18
2023-05-09T07:58:00.323Z,55.50
2023-05-09T08:00:26.897Z,54.97
2023-05-09T08:02:54.349Z,54.72
2023-05-09T08:05:21.134Z,54.62
2023-05-09T08:07:47.829Z,54.62
2023-05-09T08:10:14.637Z,54.20
2023-05-09T08:12:41.353Z,53.82
2023-05-09T08:15:08.404Z,53.79
2023-05-09T08:17:35.143Z,53.60
2023-05-09T08:20:01.923Z,53.10
2023-05-09T08:22:28.528Z,51.76
2023-05-09T08:24:55.136Z,51.29
2023-05-09T08:27:21.863Z,51.68
2023-05-09T08:29:48.473Z,51.23
2023-05-09T08:32:15.093Z,51.55
2023-05-09T08:34:41.936Z,51.12
2023-05-09T08:37:08.666Z,51.02
2023-05-09T08:39:35.318Z,50.83
2023-05-09T08:42:02.589Z,50.41
2023-05-09T08:44:30.679Z,50.17
2023-05-09T08:47:01.591Z,49.24
2023-05-09T08:49:28.897Z,48.88
2023-05-09T08:51:56.676Z,48.98
2023-05-09T08:54:25.813Z,49.06
2023-05-09T08:56:52.607Z,48.69
2023-05-09T08:59:19.730Z,48.64
2023-05-09T09:01:47.218Z,48.65
2023-05-09T09:04:14.278Z,48.54
2023-05-09T09:06:41.780Z,48.43
2023-05-09T09:09:09.279Z,48.37
2023-05-09T09:11:37.186Z,48.13
2023-05-09T09:14:13.245Z,47.22
2023-05-09T09:16:43.617Z,47.51
2023-05-09T09:19:15.614Z,47.16
2023-05-09T09:21:45.174Z,46.81
2023-05-09T09:24:20.140Z,47.00
2023-05-09T09:26:48.761Z,46.46
2023-05-09T09:29:17.196Z,46.43
2023-05-09T09:31:46.344Z,46.02
2023-05-09T09:34:19.185Z,44.19
2023-05-09T09:36:46.996Z,44.33
2023-05-09T09:39:14.358Z,44.43
2023-05-09T09:41:42.381Z,44.59
2023-05-09T09:44:11.407Z,44.68
2023-05-09T09:46:46.450Z,44.76
2023-05-09T09:49:15.032Z,44.50
2023-05-09T09:51:42.600Z,43.84
2023-05-09T09:54:10.908Z,44.16
2023-05-09T09:56:47.653Z,44.14
2023-05-09T09:59:19.034Z,44.52
2023-05-09T10:02:07.570Z,43.73
2023-05-09T10:04:39.161Z,43.76
2023-05-09T10:07:08.486Z,43.50
2023-05-09T10:09:38.017Z,43.49
2023-05-09T10:12:07.093Z,42.84
2023-05-09T10:14:35.965Z,43.17
2023-05-09T10:17:05.292Z,43.79
2023-05-09T10:19:33.106Z,43.30
2023-05-09T10:22:10.916Z,42.90
2023-05-09T10:24:47.192Z,42.45
2023-05-09T10:27:15.680Z,41.88
2023-05-09T10:29:48.358Z,41.89
2023-05-09T10:32:27.694Z,42.20
2023-05-09T10:35:02.196Z,42.38
2023-05-09T10:37:30.949Z,42.55
2023-05-09T10:40:00.200Z,42.44
2023-05-09T10:42:28.517Z,42.27
2023-05-09T10:44:56.379Z,42.51
2023-05-09T10:47:27.010Z,41.99
2023-05-09T10:49:54.929Z,41.95
2023-05-09T10:52:22.775Z,42.11
2023-05-09T10:55:04.158Z,42.33
2023-05-09T10:57:32.227Z,42.59
2023-05-09T11:00:00.601Z,42.51
2023-05-09T11:02:31.064Z,42.78
2023-05-09T11:05:15.985Z,43.38
2023-05-09T11:07:43.572Z,43.12
2023-05-09T11:10:15.908Z,43.22
2023-05-09T11:13:00.240Z,43.43
2023-05-09T11:15:30.270Z,43.63
2023-05-09T11:18:12.371Z,43.84
2023-05-09T11:20:49.215Z,43.53
2023-05-09T11:23:17.631Z,43.76
2023-05-09T11:25:47.776Z,43.67
2023-05-09T11:28:35.763Z,43.19
2023-05-09T11:31:14.572Z,42.99
2023-05-09T11:33:43.424Z,43.07
2023-05-09T11:36:30.292Z,43.38
2023-05-09T11:39:10.610Z,42.92
2023-05-09T11:41:43.483Z,43.13
2023-05-09T11:44:15.447Z,42.70
2023-05-09T11:46:42.870Z,42.84
2023-05-09T11:49:11.964Z,42.34
2023-05-09T11:51:39.862Z,42.22
2023-05-09T11:54:07.957Z,42.47
2023-05-09T11:56:40.866Z,41.79
2023-05-09T11:59:08.045Z,41.27
2023-05-09T12:01:36.798Z,41.63
2023-05-09T12:04:07.902Z,42.04
2023-05-09T12:06:34.612Z,42.34
2023-05-09T12:09:01.558Z,42.10
2023-05-09T12:11:32.563Z,42.76
2023-05-09T12:13:59.200Z,42.68
2023-05-09T12:16:26.059Z,42.73
2023-05-09T12:18:53.305Z,42.72
2023-05-09T12:21:21.736Z,42.51
2023-05-09T12:23:50.917Z,41.26
2023-05-09T12:26:19.122Z,41.74
2023-05-09T12:28:45.988Z,41.78
2023-05-09T12:31:13.068Z,41.07
2023-05-09T12:33:40.227Z,41.33
2023-05-09T12:36:08.723Z,41.09
2023-05-09T12:38:35.476Z,41.46
2023-05-09T12:41:04.200Z,41.99
2023-05-09T12:43:32.733Z,42.42
2023-05-09T12:46:00.564Z,42.24
2023-05-09T12:48:27.652Z,42.34
2023-05-09T12:50:54.413Z,42.59
2023-05-09T12:53:31.206Z,43.07
2023-05-09T12:56:05.536Z,43.09
2023-05-09T12:58:33.616Z,43.23
2023-05-09T13:01:04.489Z,44.00
2023-05-09T13:03:37.849Z,44.10
2023-05-09T13:06:06.705Z,44.30
2023-05-09T13:08:33.401Z,44.77
2023-05-09T13:11:11.859Z,44.70
2023-05-09T13:13:42.643Z,44.69
2023-05-09T13:16:10.733Z,44.37
2023-05-09T13:18:38.349Z,44.40
2023-05-09T13:21:05.035Z,44.64
2023-05-09T13:23:31.661Z,45.04
2023-05-09T13:25:58.391Z,45.03
2023-05-09T13:28:25.028Z,44.71
2023-05-09T13:30:51.769Z,44.24
2023-05-09T13:33:25.656Z,43.38
2023-05-09T13:35:53.708Z,43.24
2023-05-09T13:38:20.427Z,42.80
2023-05-09T13:40:47.011Z,42.83
2023-05-09T13:43:13.672Z,42.66
2023-05-09T13:45:40.274Z,42.05
2023-05-09T13:48:07.029Z,42.06
2023-05-09T13:50:34.379Z,41.81
2023-05-09T13:53:01.167Z,42.30
2023-05-09T13:55:27.921Z,42.24
2023-05-09T13:57:55.108Z,41.71
2023-05-09T14:00:22.556Z,41.64
2023-05-09T14:02:49.233Z,41.56
2023-05-09T14:05:17.078Z,41.55
2023-05-09T14:07:45.193Z,41.84
2023-05-09T14:10:12.864Z,41.55
2023-05-09T14:12:40.690Z,41.75
2023-05-09T14:15:08.708Z,41.74
2023-05-09T14:17:35.673Z,42.24
2023-05-09T14:20:02.409Z,42.61
2023-05-09T14:22:29.151Z,42.71
2023-05-09T14:24:57.504Z,42.91
2023-05-09T14:27:25.258Z,43.35
2023-05-09T14:29:52.221Z,43.69
2023-05-09T14:32:18.884Z,44.01
2023-05-09T14:34:46.006Z,44.36
2023-05-09T14:37:15.784Z,44.44
2023-05-09T14:39:45.284Z,44.22
2023-05-09T14:42:14.129Z,43.98
2023-05-09T14:44:41.698Z,43.64
2023-05-09T14:47:09.806Z,43.88
2023-05-09T14:49:37.894Z,44.06
2023-05-09T14:52:04.688Z,44.40
2023-05-09T14:54:31.698Z,44.27
2023-05-09T14:56:59.612Z,44.17
2023-05-09T14:59:26.340Z,44.08
2023-05-09T15:01:53.370Z,44.13
2023-05-09T15:04:19.973Z,43.89
2023-05-09T15:06:46.605Z,43.90
2023-05-09T15:09:14.006Z,43.66
2023-05-09T15:11:48.392Z,43.95
2023-05-09T15:14:16.801Z,44.18
2023-05-09T15:16:44.368Z,44.22
2023-05-09T15:19:11.322Z,44.69
2023-05-09T15:21:38.200Z,45.04
2023-05-09T15:24:05.139Z,45.02
2023-05-09T15:26:32.359Z,45.21
2023-05-09T15:28:59.185Z,45.29
2023-05-09T15:31:26.059Z,45.49
2023-05-09T15:33:52.923Z,45.85
2023-05-09T15:36:19.661Z,46.16
2023-05-09T15:38:49.728Z,46.17
2023-05-09T15:41:17.082Z,46.23
2023-05-09T15:43:44.004Z,46.56
2023-05-09T15:46:11.013Z,46.59
2023-05-09T15:48:37.874Z,46.74
2023-05-09T15:51:04.773Z,47.00
2023-05-09T15:53:31.628Z,47.18
2023-05-09T15:55:58.254Z,47.28
2023-05-09T15:58:25.106Z,47.42
2023-05-09T16:00:52.090Z,47.87
2023-05-09T16:03:19.185Z,48.14
2023-05-09T16:05:46.293Z,48.19
2023-05-09T16:08:13.126Z,48.27
2023-05-09T16:10:40.620Z,48.20
2023-05-09T16:13:07.971Z,48.41
2023-05-09T16:15:35.352Z,48.44
2023-05-09T16:18:02.311Z,48.79
2023-05-09T16:20:29.629Z,48.74
2023-05-09T16:22:56.316Z,49.20
2023-05-09T16:25:23.025Z,49.16
2023-05-09T16:27:49.687Z,49.42
2023-05-09T16:30:16.950Z,49.44
2023-05-09T16:32:43.908Z,49.22
2023-05-09T16:35:10.975Z,49.35
2023-05-09T16:37:37.734Z,49.44
2023-05-09T16:40:04.920Z,49.45
2023-05-09T16:42:31.821Z,49.48
2023-05-09T16:44:58.519Z,49.60
2023-05-09T16:47:25.348Z,49.62
2023-05-09T16:49:52.155Z,49.56
2023-05-09T16:52:18.953Z,49.51
2023-05-09T16:54:45.559Z,49.42
2023-05-09T16:57:12.810Z,49.57
2023-05-09T16:59:39.783Z,49.84
2023-05-09T17:02:06.495Z,49.72
2023-05-09T17:04:34.692Z,49.63
2023-05-09T17:07:02.765Z,49.63
2023-05-09T17:09:29.608Z,49.66
2023-05-09T17:11:56.512Z,49.84
2023-05-09T17:14:23.165Z,49.71
2023-05-09T17:16:50.001Z,50.03
2023-05-09T17:19:17.076Z,50.11
2023-05-09T17:21:44.357Z,50.43
2023-05-09T17:24:11.092Z,50.40
2023-05-09T17:26:38.844Z,50.54
2023-05-09T17:29:06.095Z,50.63
2023-05-09T17:31:32.843Z,50.62
2023-05-09T17:33:59.450Z,50.81
2023-05-09T17:36:26.280Z,50.73
2023-05-09T17:38:52.881Z,50.94
2023-05-09T17:41:19.531Z,51.15
2023-05-09T17:43:46.163Z,51.18
2023-05-09T17:46:14.949Z,51.31
2023-05-09T17:48:42.115Z,51.45
2023-05-09T17:51:09.139Z,51.60
2023-05-09T17:53:35.761Z,51.44
2023-05-09T17:56:02.553Z,51.48
2023-05-09T17:58:29.985Z,51.66
2023-05-09T18:00:58.713Z,51.69
2023-05-09T18:03:27.204Z,51.78
2023-05-09T18:05:54.024Z,51.86
2023-05-09T18:08:20.649Z,51.94
2023-05-09T18:10:47.585Z,52.09
2023-05-09T18:13:14.324Z,52.23
2023-05-09T18:15:41.322Z,52.16
2023-05-09T18:18:08.164Z,52.28
2023-05-09T18:20:35.027Z,52.27
2023-05-09T18:23:01.788Z,52.40
2023-05-09T18:25:28.508Z,52.32
2023-05-09T18:27:56.571Z,52.42
2023-05-09T18:30:23.318Z,52.52
2023-05-09T18:32:49.944Z,52.62
2023-05-09T18:35:16.847Z,52.69
2023-05-09T18:37:43.901Z,52.76
2023-05-09T18:40:15.336Z,52.83
2023-05-09T18:42:42.656Z,53.04
2023-05-09T18:45:10.389Z,52.89
2023-05-09T18:47:37.999Z,52.96
2023-05-09T18:50:07.116Z,53.15
2023-05-09T18:52:34.398Z,53.21
2023-05-09T18:55:00.999Z,53.27
2023-05-09T18:57:28.319Z,53.12
2023-05-09T18:59:56.066Z,53.18
2023-05-09T19:02:23.641Z,53.35
2023-05-09T19:04:51.571Z,53.29
2023-05-09T19:07:18.506Z,53.32
2023-05-09T19:09:45.785Z,53.47
2023-05-09T19:12:12.491Z,53.39
2023-05-09T19:14:39.151Z,53.35
2023-05-09T19:17:06.043Z,53.44
2023-05-09T19:19:33.074Z,53.36
2023-05-09T19:22:01.573Z,53.45
2023-05-09T19:24:28.150Z,53.59
2023-05-09T19:26:55.120Z,53.52
2023-05-09T19:29:21.757Z,53.47
2023-05-09T19:31:48.449Z,53.43
2023-05-09T19:34:15.434Z,53.60
2023-05-09T19:36:42.061Z,53.68
2023-05-09T19:39:09.211Z,53.61
2023-05-09T19:41:35.977Z,53.70
2023-05-09T19:44:02.727Z,53.44
2023-05-09T19:46:29.572Z,53.48
2023-05-09T19:48:56.324Z,53.54
2023-05-09T19:51:22.975Z,53.61
2023-05-09T19:53:49.720Z,53.84
2023-05-09T19:56:16.643Z,54.03
2023-05-09T19:58:43.503Z,54.19
2023-05-09T20:01:10.355Z,54.42
2023-05-09T20:03:38.821Z,54.67
2023-05-09T20:06:05.844Z,54.75
2023-05-09T20:08:32.532Z,54.82
2023-05-09T20:11:00.138Z,55.68
2023-05-09T20:13:27.514Z,55.87
2023-05-09T20:15:54.392Z,55.42
2023-05-09T20:18:21.138Z,55.32
2023-05-09T20:20:48.087Z,55.21
2023-05-09T20:23:14.668Z,55.55
2023-05-09T20:25:41.253Z,55.63
2023-05-09T20:28:11.591Z,55.79
2023-05-09T20:30:38.791Z,56.06
2023-05-09T20:33:05.370Z,56.14
2023-05-09T20:35:32.227Z,56.58
2023-05-09T20:37:58.840Z,56.39
2023-05-09T20:40:25.749Z,56.87
2023-05-09T20:42:52.763Z,57.45
2023-05-09T20:45:19.565Z,57.46
2023-05-09T20:47:46.269Z,57.50
2023-05-09T20:50:12.957Z,57.70
2023-05-09T20:52:39.586Z,58.10
2023-05-09T20:55:06.418Z,58.26
2023-05-09T20:57:33.085Z,58.93
2023-05-09T20:59:59.622Z,59.22
2023-05-09T21:02:26.204Z,58.77
2023-05-09T21:04:52.804Z,58.79
2023-05-09T21:07:19.469Z,59.32
2023-05-09T21:09:47.230Z,60.15
2023-05-09T21:12:13.862Z,60.12
2023-05-09T21:14:40.920Z,60.56
2023-05-09T21:17:07.564Z,61.16
2023-05-09T21:19:34.240Z,61.31
2023-05-09T21:22:01.320Z,61.33
2023-05-09T21:24:27.881Z,61.31
2023-05-09T21:26:54.498Z,61.51
2023-05-09T21:29:21.130Z,61.74
2023-05-09T21:31:47.718Z,61.45
2023-05-09T21:34:14.274Z,61.98
2023-05-09T21:36:41.048Z,61.76
2023-05-09T21:39:11.688Z,61.78
2023-05-09T21:41:40.130Z,61.93
2023-05-09T21:44:11.982Z,62.35
2023-05-09T21:46:38.882Z,62.34
2023-05-09T21:49:05.709Z,62.86
2023-05-09T21:51:33.525Z,63.82
2023-05-09T21:54:01.111Z,64.75
2023-05-09T21:56:27.641Z,65.11
2023-05-09T21:58:54.157Z,65.29
2023-05-09T22:01:21.236Z,65.36
2023-05-09T22:03:47.908Z,65.47
2023-05-09T22:06:14.666Z,65.93
2023-05-09T22:08:41.196Z,65.78
2023-05-09T22:11:07.830Z,65.74
2023-05-09T22:13:36.367Z,66.19
2023-05-09T22:16:04.069Z,66.60
2023-05-09T22:18:31.398Z,66.76
2023-05-09T22:20:58.008Z,66.88
2023-05-09T22:23:24.731Z,66.86
2023-05-09T22:25:51.346Z,67.16
2023-05-09T22:28:17.985Z,66.72
2023-05-09T22:30:44.586Z,66.68
2023-05-09T22:33:11.271Z,65.83
2023-05-09T22:35:37.992Z,65.76
2023-05-09T22:38:04.512Z,65.35
2023-05-09T22:40:31.125Z,65.57
2023-05-09T22:42:57.696Z,65.39
2023-05-09T22:45:24.255Z,65.22
2023-05-09T22:47:50.952Z,64.81
2023-05-09T22:50:17.908Z,64.52
2023-05-09T22:52:45.021Z,64.34
2023-05-09T22:55:11.800Z,63.83
2023-05-09T22:57:38.495Z,63.79
2023-05-09T23:00:06.195Z,63.79
2023-05-09T23:02:32.967Z,63.78
2023-05-09T23:04:59.987Z,63.97
2023-05-09T23:07:26.547Z,63.98
2023-05-09T23:09:53.201Z,64.26
2023-05-09T23:12:19.855Z,64.03
2023-05-09T23:14:46.839Z,63.82
2023-05-09T23:17:13.488Z,63.51
2023-05-09T23:19:40.072Z,63.46
2023-05-09T23:22:06.728Z,63.38
2023-05-09T23:24:33.360Z,63.22
2023-05-09T23:26:59.972Z,62.89
2023-05-09T23:29:26.796Z,62.63
2023-05-09T23:31:53.592Z,62.11
2023-05-09T23:34:20.547Z,62.14
2023-05-09T23:36:47.127Z,61.88
2023-05-09T23:39:15.579Z,61.82
2023-05-09T23:41:42.155Z,61.70
2023-05-09T23:44:09.108Z,61.57
2023-05-09T23:46:35.915Z,61.70
2023-05-09T23:49:02.606Z,61.22
2023-05-09T23:51:29.212Z,61.25
2023-05-09T23:53:55.797Z,61.12
2023-05-09T23:56:22.527Z,61.35
2023-05-09T23:58:49.193Z,61.00
